createdAt,value
2018-09-28T00:04:14.931Z,11.87
2018-09-28T00:08:55.025Z,10.07
2018-09-28T00:13:35.450Z,27.83
2018-09-28T00:18:16.066Z,18.67
2018-09-28T00:22:56.305Z,12.40
2018-09-28T00:27:36.415Z,11.10
2018-09-28T00:32:17.162Z,14.03
2018-09-28T00:36:56.989Z,18.83
2018-09-28T00:41:37.153Z,21.67
2018-09-28T00:46:17.056Z,32.73
2018-09-28T00:50:56.989Z,21.63
2018-09-28T00:55:37.007Z,13.83
2018-09-28T01:00:17.104Z,11.90
2018-09-28T01:04:57.230Z,19.93
2018-09-28T01:09:37.236Z,16.00
2018-09-28T01:14:17.245Z,13.13
2018-09-28T01:18:58.081Z,21.83
2018-09-28T01:23:38.313Z,17.70
2018-09-28T01:28:18.213Z,9.73
2018-09-28T01:32:59.772Z,10.30
2018-09-28T01:37:39.949Z,21.27
2018-09-28T01:42:20.152Z,22.33
2018-09-28T01:47:00.206Z,9.07
2018-09-28T01:51:40.180Z,14.57
2018-09-28T01:56:20.357Z,10.13
2018-09-28T02:01:00.792Z,22.07
2018-09-28T02:05:40.736Z,7.60
2018-09-28T02:10:20.913Z,8.17
2018-09-28T02:15:00.858Z,7.20
2018-09-28T02:19:41.390Z,20.07
2018-09-28T02:24:21.200Z,7.57
2018-09-28T02:29:01.174Z,8.57
2018-09-28T02:33:42.300Z,19.07
2018-09-28T02:38:22.248Z,15.67
2018-09-28T02:43:03.094Z,7.97
2018-09-28T02:47:43.882Z,12.17
2018-09-28T02:52:24.295Z,9.20
2018-09-28T02:57:05.392Z,7.23
2018-09-28T03:01:45.129Z,8.30
2018-09-28T03:06:25.213Z,18.03
2018-09-28T03:11:05.087Z,24.17
2018-09-28T03:15:45.522Z,17.53
2018-09-28T03:20:25.350Z,16.27
2018-09-28T03:25:05.841Z,14.90
2018-09-28T03:29:45.633Z,18.97
2018-09-28T03:34:25.705Z,13.13
2018-09-28T03:39:08.079Z,9.37
2018-09-28T03:43:48.260Z,7.63
2018-09-28T03:48:27.931Z,10.53
2018-09-28T03:53:08.605Z,14.70
2018-09-28T03:57:48.441Z,8.40
2018-09-28T04:02:28.593Z,6.73
2018-09-28T04:07:10.241Z,8.57
2018-09-28T04:11:50.189Z,8.60
2018-09-28T04:16:30.392Z,10.70
2018-09-28T04:21:10.541Z,8.37
2018-09-28T04:25:50.694Z,8.13
2018-09-28T04:30:31.632Z,8.00
2018-09-28T04:35:11.675Z,8.10
2018-09-28T04:39:51.721Z,9.20
2018-09-28T04:44:31.829Z,10.17
2018-09-28T04:49:11.880Z,10.77
2018-09-28T04:53:52.253Z,9.77
2018-09-28T04:58:32.295Z,10.43
2018-09-28T05:03:12.469Z,18.60
2018-09-28T05:07:52.562Z,15.20
2018-09-28T05:12:34.339Z,10.60
2018-09-28T05:17:14.871Z,12.07
2018-09-28T05:21:57.718Z,10.97
2018-09-28T05:26:38.772Z,11.57
2018-09-28T05:31:19.224Z,11.30
2018-09-28T05:35:59.300Z,13.30
2018-09-28T05:40:39.573Z,14.93
2018-09-28T05:45:20.012Z,11.87
2018-09-28T05:50:00.164Z,11.27
2018-09-28T05:54:40.413Z,11.30
2018-09-28T05:59:26.250Z,11.90
2018-09-28T06:04:12.389Z,12.10
2018-09-28T06:08:52.562Z,12.40
2018-09-28T06:13:33.413Z,12.77
2018-09-28T06:18:13.444Z,13.10
2018-09-28T06:22:54.574Z,12.90
2018-09-28T06:27:34.365Z,12.10
2018-09-28T06:32:14.536Z,12.53
2018-09-28T06:36:55.379Z,12.10
2018-09-28T06:41:36.738Z,12.07
2018-09-28T06:46:16.744Z,12.10
2018-09-28T06:50:56.854Z,12.90
2018-09-28T06:55:37.325Z,11.90
2018-09-28T07:00:18.755Z,10.68
2018-09-28T07:04:58.941Z,11.50
2018-09-28T07:09:39.587Z,10.25
2018-09-28T07:14:19.673Z,10.65
2018-09-28T07:18:59.649Z,10.80
2018-09-28T07:23:40.777Z,9.93
2018-09-28T07:28:21.050Z,10.55
2018-09-28T07:33:01.133Z,10.15
2018-09-28T07:37:41.340Z,9.08
2018-09-28T07:42:21.905Z,9.45
2018-09-28T07:47:02.198Z,16.85
2018-09-28T07:51:43.525Z,13.53
2018-09-28T07:56:23.572Z,15.60
2018-09-28T08:01:04.390Z,14.28
2018-09-28T08:05:44.716Z,11.93
2018-09-28T08:10:24.886Z,11.97
2018-09-28T08:15:05.798Z,11.33
2018-09-28T08:19:46.609Z,10.00
2018-09-28T08:24:27.017Z,10.75
2018-09-28T08:29:07.013Z,27.62
2018-09-28T08:33:47.605Z,72.12
2018-09-28T08:38:28.442Z,32.05
2018-09-28T08:43:08.407Z,10.63
2018-09-28T08:47:48.668Z,9.75
2018-09-28T08:52:28.752Z,9.60
2018-09-28T08:57:08.561Z,11.45
2018-09-28T09:01:49.217Z,11.03
2018-09-28T09:06:29.277Z,10.82
2018-09-28T09:11:09.864Z,7.50
2018-09-28T09:15:50.821Z,12.20
2018-09-28T09:20:30.868Z,13.25
2018-09-28T09:25:11.152Z,27.98
2018-09-28T09:29:51.089Z,21.30
2018-09-28T09:34:31.118Z,6.58
2018-09-28T09:39:11.911Z,6.28
2018-09-28T09:43:53.100Z,6.85
2018-09-28T09:48:32.798Z,9.85
2018-09-28T09:53:12.881Z,9.45
2018-09-28T09:57:52.988Z,9.53
2018-09-28T10:02:38.238Z,9.20
2018-09-28T10:07:18.391Z,12.98
2018-09-28T10:11:58.493Z,11.10
2018-09-28T10:16:38.560Z,11.22
2018-09-28T10:21:18.444Z,9.95
2018-09-28T10:25:58.989Z,10.45
2018-09-28T10:30:39.077Z,8.88
2018-09-28T10:35:19.188Z,10.35
2018-09-28T10:39:59.381Z,10.05
2018-09-28T10:44:39.797Z,9.75
2018-09-28T10:49:19.803Z,8.55
2018-09-28T10:54:00.376Z,9.50
2018-09-28T10:58:40.259Z,9.13
2018-09-28T11:03:20.448Z,9.23
2018-09-28T11:08:00.677Z,9.28
2018-09-28T11:12:40.688Z,8.25
2018-09-28T11:17:20.669Z,7.22
2018-09-28T11:22:00.641Z,8.23
2018-09-28T11:26:41.104Z,7.70
2018-09-28T11:31:21.033Z,7.58
2018-09-28T11:36:01.362Z,7.30
2018-09-28T11:40:41.652Z,7.12
2018-09-28T11:45:22.502Z,7.08
2018-09-28T11:50:03.237Z,7.47
2018-09-28T11:54:44.077Z,7.40
2018-09-28T11:59:24.877Z,7.80
2018-09-28T12:04:05.739Z,10.10
2018-09-28T12:08:46.877Z,7.30
2018-09-28T12:13:27.069Z,7.15
2018-09-28T12:18:07.070Z,6.60
2018-09-28T12:22:46.932Z,5.85
2018-09-28T12:27:26.923Z,5.05
2018-09-28T12:32:06.674Z,5.28
2018-09-28T12:36:48.023Z,5.20
2018-09-28T12:41:27.909Z,6.37
2018-09-28T12:46:07.728Z,5.45
2018-09-28T12:50:47.868Z,6.42
2018-09-28T12:55:27.669Z,5.20
2018-09-28T13:00:08.000Z,6.22
2018-09-28T13:04:48.447Z,5.92
2018-09-28T13:09:28.875Z,6.80
2018-09-28T13:14:09.630Z,6.03
2018-09-28T13:18:50.133Z,5.92
2018-09-28T13:23:30.103Z,7.45
2018-09-28T13:28:16.605Z,5.92
2018-09-28T13:32:56.509Z,5.28
2018-09-28T13:37:36.489Z,4.40
2018-09-28T13:42:17.295Z,4.58
2018-09-28T13:46:56.959Z,4.30
2018-09-28T13:51:36.835Z,3.80
2018-09-28T13:56:17.658Z,3.70
2018-09-28T14:00:58.721Z,4.50
2018-09-28T14:05:39.653Z,7.65
2018-09-28T14:10:20.728Z,5.40
2018-09-28T14:15:00.668Z,5.60
2018-09-28T14:19:43.011Z,3.75
2018-09-28T14:24:24.226Z,4.10
2018-09-28T14:29:04.429Z,3.87
2018-09-28T14:33:44.396Z,4.25
2018-09-28T14:38:24.922Z,4.28
2018-09-28T14:43:05.360Z,3.87
2018-09-28T14:47:45.486Z,6.25
2018-09-28T14:52:28.479Z,4.12
2018-09-28T14:57:08.396Z,4.20
2018-09-28T15:01:48.529Z,4.65
2018-09-28T15:06:29.418Z,4.60
2018-09-28T15:11:09.504Z,3.90
2018-09-28T15:15:50.052Z,3.70
2018-09-28T15:20:30.208Z,4.50
2018-09-28T15:25:09.925Z,4.25
2018-09-28T15:29:50.342Z,5.50
2018-09-28T15:34:30.364Z,5.58
2018-09-28T15:39:12.241Z,6.25
2018-09-28T15:43:52.345Z,8.38
2018-09-28T15:48:32.197Z,8.43
2018-09-28T15:53:12.554Z,8.90
2018-09-28T15:57:52.417Z,9.05
2018-09-28T16:02:32.519Z,9.10
2018-09-28T16:07:12.576Z,9.95
2018-09-28T16:11:52.817Z,9.13
2018-09-28T16:16:33.624Z,10.45
2018-09-28T16:21:14.030Z,10.10
2018-09-28T16:25:54.037Z,9.33
2018-09-28T16:30:34.314Z,8.05
2018-09-28T16:35:14.677Z,8.93
2018-09-28T16:39:54.733Z,8.45
2018-09-28T16:44:34.806Z,8.60
2018-09-28T16:49:16.420Z,7.25
2018-09-28T16:53:57.422Z,6.15
2018-09-28T16:58:37.327Z,8.33
2018-09-28T17:03:17.807Z,6.45
2018-09-28T17:07:57.815Z,6.72
2018-09-28T17:12:38.716Z,8.40
2018-09-28T17:17:18.788Z,8.78
2018-09-28T17:21:58.761Z,8.20
2018-09-28T17:26:39.024Z,5.30
2018-09-28T17:31:19.300Z,4.17
2018-09-28T17:35:59.503Z,3.87
2018-09-28T17:40:39.508Z,3.08
2018-09-28T17:45:19.937Z,3.25
2018-09-28T17:49:59.912Z,2.55
2018-09-28T17:54:40.161Z,2.50
2018-09-28T17:59:20.064Z,2.45
2018-09-28T18:04:00.665Z,2.80
2018-09-28T18:08:41.885Z,2.40
2018-09-28T18:13:24.172Z,3.02
2018-09-28T18:18:04.489Z,2.67
2018-09-28T18:22:44.550Z,3.80
2018-09-28T18:27:24.773Z,3.62
2018-09-28T18:32:05.099Z,4.03
2018-09-28T18:36:46.138Z,4.30
2018-09-28T18:41:26.441Z,5.12
2018-09-28T18:46:06.190Z,5.70
2018-09-28T18:50:46.388Z,5.40
2018-09-28T18:55:26.482Z,5.40
2018-09-28T19:00:06.582Z,5.80
2018-09-28T19:04:46.753Z,5.22
2018-09-28T19:09:26.864Z,5.28
2018-09-28T19:14:07.665Z,4.87
2018-09-28T19:18:47.679Z,4.97
2018-09-28T19:23:28.302Z,4.53
2018-09-28T19:28:08.126Z,4.60
2018-09-28T19:32:49.174Z,4.30
2018-09-28T19:37:29.186Z,4.10
2018-09-28T19:42:09.576Z,4.15
2018-09-28T19:46:49.308Z,3.83
2018-09-28T19:51:29.476Z,3.52
2018-09-28T19:56:10.143Z,3.15
2018-09-28T20:00:51.016Z,3.05
2018-09-28T20:05:31.388Z,2.87
2018-09-28T20:10:11.517Z,3.17
2018-09-28T20:14:51.183Z,2.83
2018-09-28T20:19:31.005Z,3.40
2018-09-28T20:24:11.241Z,3.12
2018-09-28T20:28:51.274Z,2.83
2018-09-28T20:33:31.348Z,2.92
2018-09-28T20:38:11.731Z,2.87
2018-09-28T20:42:52.325Z,3.50
2018-09-28T20:47:32.370Z,3.33
2018-09-28T20:52:12.428Z,3.10
2018-09-28T20:56:53.029Z,3.40
2018-09-28T21:01:33.286Z,3.70
2018-09-28T21:06:13.261Z,3.47
2018-09-28T21:10:53.275Z,3.40
2018-09-28T21:15:34.298Z,5.17
2018-09-28T21:20:14.315Z,3.12
2018-09-28T21:24:55.413Z,2.80
2018-09-28T21:29:35.448Z,3.02
2018-09-28T21:34:16.020Z,3.52
2018-09-28T21:38:56.358Z,3.33
2018-09-28T21:43:37.207Z,3.33
2018-09-28T21:48:17.360Z,3.70
2018-09-28T21:52:57.646Z,3.77
2018-09-28T21:57:37.496Z,4.20
2018-09-28T22:02:18.489Z,4.40
2018-09-28T22:06:58.621Z,3.77
2018-09-28T22:11:38.676Z,4.00
2018-09-28T22:16:19.729Z,3.92
2018-09-28T22:20:59.687Z,3.70
2018-09-28T22:25:39.769Z,3.47
2018-09-28T22:30:19.525Z,3.80
2018-09-28T22:34:59.569Z,3.42
2018-09-28T22:39:39.820Z,3.52
2018-09-28T22:44:20.102Z,3.90
2018-09-28T22:49:00.353Z,3.65
2018-09-28T22:53:40.450Z,3.30
2018-09-28T22:58:21.037Z,3.50
2018-09-28T23:03:01.195Z,3.50
2018-09-28T23:07:42.322Z,3.60
2018-09-28T23:12:22.928Z,3.33
2018-09-28T23:17:02.810Z,4.00
2018-09-28T23:21:43.113Z,3.70
2018-09-28T23:26:23.154Z,3.58
2018-09-28T23:31:03.130Z,3.22
2018-09-28T23:35:43.564Z,3.47
2018-09-28T23:40:24.693Z,3.10
2018-09-28T23:45:05.565Z,3.20
2018-09-28T23:49:46.753Z,2.98
2018-09-28T23:54:27.012Z,3.30
2018-09-28T23:59:07.834Z,2.60
